sensor_id;sensor_type;location;lat;lon;timestamp;P1;durP1;ratioP1;P2;durP2;ratioP2
19971;SDS011;10147;16.402;102.848;2023-04-06T00:01:09;97.88;;;66.50;;
19971;SDS011;10147;16.402;102.848;2023-04-06T00:03:39;100.93;;;73.38;;
19971;SDS011;10147;16.402;102.848;2023-04-06T00:06:10;92.78;;;72.50;;
19971;SDS011;10147;16.402;102.848;2023-04-06T00:08:42;99.63;;;72.13;;
19971;SDS011;10147;16.402;102.848;2023-04-06T00:11:13;88.55;;;66.97;;
19971;SDS011;10147;16.402;102.848;2023-04-06T00:13:43;82.15;;;63.97;;
19971;SDS011;10147;16.402;102.848;2023-04-06T00:16:13;86.72;;;63.90;;
19971;SDS011;10147;16.402;102.848;2023-04-06T00:18:44;92.95;;;61.70;;
19971;SDS011;10147;16.402;102.848;2023-04-06T00:21:14;80.78;;;59.63;;
19971;SDS011;10147;16.402;102.848;2023-04-06T00:23:44;85.60;;;61.17;;
19971;SDS011;10147;16.402;102.848;2023-04-06T00:26:14;76.78;;;61.45;;
19971;SDS011;10147;16.402;102.848;2023-04-06T00:28:46;77.97;;;61.47;;
19971;SDS011;10147;16.402;102.848;2023-04-06T00:31:18;69.55;;;59.13;;
19971;SDS011;10147;16.402;102.848;2023-04-06T00:33:48;72.07;;;55.75;;
19971;SDS011;10147;16.402;102.848;2023-04-06T00:36:18;61.30;;;51.83;;
19971;SDS011;10147;16.402;102.848;2023-04-06T00:38:48;56.38;;;45.75;;
19971;SDS011;10147;16.402;102.848;2023-04-06T00:41:19;55.90;;;44.60;;
19971;SDS011;10147;16.402;102.848;2023-04-06T00:43:49;50.28;;;43.33;;
19971;SDS011;10147;16.402;102.848;2023-04-06T00:46:18;56.63;;;43.40;;
19971;SDS011;10147;16.402;102.848;2023-04-06T00:48:49;52.40;;;42.85;;
19971;SDS011;10147;16.402;102.848;2023-04-06T00:51:19;50.20;;;42.05;;
19971;SDS011;10147;16.402;102.848;2023-04-06T00:53:49;54.55;;;40.97;;
19971;SDS011;10147;16.402;102.848;2023-04-06T00:56:19;52.47;;;42.63;;
19971;SDS011;10147;16.402;102.848;2023-04-06T00:58:52;48.95;;;41.17;;
19971;SDS011;10147;16.402;102.848;2023-04-06T01:01:23;54.05;;;43.55;;
19971;SDS011;10147;16.402;102.848;2023-04-06T01:03:58;55.92;;;45.15;;
19971;SDS011;10147;16.402;102.848;2023-04-06T01:06:30;54.25;;;43.88;;
19971;SDS011;10147;16.402;102.848;2023-04-06T01:09:01;59.85;;;45.45;;
19971;SDS011;10147;16.402;102.848;2023-04-06T01:11:31;55.70;;;45.42;;
19971;SDS011;10147;16.402;102.848;2023-04-06T01:14:04;56.05;;;45.05;;
19971;SDS011;10147;16.402;102.848;2023-04-06T01:16:51;56.05;;;45.13;;
19971;SDS011;10147;16.402;102.848;2023-04-06T01:19:26;66.50;;;47.20;;
19971;SDS011;10147;16.402;102.848;2023-04-06T01:21:57;53.88;;;45.17;;
19971;SDS011;10147;16.402;102.848;2023-04-06T01:24:46;58.60;;;45.55;;
19971;SDS011;10147;16.402;102.848;2023-04-06T01:27:22;53.05;;;43.83;;
19971;SDS011;10147;16.402;102.848;2023-04-06T01:30:13;58.83;;;50.63;;
19971;SDS011;10147;16.402;102.848;2023-04-06T01:33:05;58.35;;;52.13;;
19971;SDS011;10147;16.402;102.848;2023-04-06T01:35:47;54.10;;;44.65;;
19971;SDS011;10147;16.402;102.848;2023-04-06T01:38:19;51.88;;;43.17;;
19971;SDS011;10147;16.402;102.848;2023-04-06T01:40:49;56.53;;;43.53;;
19971;SDS011;10147;16.402;102.848;2023-04-06T01:43:21;56.58;;;44.63;;
19971;SDS011;10147;16.402;102.848;2023-04-06T01:46:01;53.00;;;43.17;;
19971;SDS011;10147;16.402;102.848;2023-04-06T01:48:35;53.63;;;44.50;;
19971;SDS011;10147;16.402;102.848;2023-04-06T01:51:23;51.03;;;43.83;;
19971;SDS011;10147;16.402;102.848;2023-04-06T01:53:58;49.40;;;43.33;;
19971;SDS011;10147;16.402;102.848;2023-04-06T01:56:46;56.97;;;44.40;;
19971;SDS011;10147;16.402;102.848;2023-04-06T01:59:38;50.50;;;43.83;;
19971;SDS011;10147;16.402;102.848;2023-04-06T02:02:20;56.13;;;48.38;;
19971;SDS011;10147;16.402;102.848;2023-04-06T02:05:01;53.50;;;42.30;;
19971;SDS011;10147;16.402;102.848;2023-04-06T02:07:31;49.60;;;42.25;;
19971;SDS011;10147;16.402;102.848;2023-04-06T02:10:02;52.17;;;42.30;;
19971;SDS011;10147;16.402;102.848;2023-04-06T02:12:36;50.20;;;42.95;;
19971;SDS011;10147;16.402;102.848;2023-04-06T02:15:10;56.20;;;43.60;;
19971;SDS011;10147;16.402;102.848;2023-04-06T02:17:42;50.58;;;41.40;;
19971;SDS011;10147;16.402;102.848;2023-04-06T02:20:12;50.78;;;43.63;;
19971;SDS011;10147;16.402;102.848;2023-04-06T02:22:42;49.28;;;43.58;;
19971;SDS011;10147;16.402;102.848;2023-04-06T02:25:12;48.63;;;43.38;;
19971;SDS011;10147;16.402;102.848;2023-04-06T02:27:42;47.65;;;42.20;;
19971;SDS011;10147;16.402;102.848;2023-04-06T02:30:12;48.67;;;43.50;;
19971;SDS011;10147;16.402;102.848;2023-04-06T02:32:42;49.53;;;44.13;;
19971;SDS011;10147;16.402;102.848;2023-04-06T02:35:13;50.60;;;44.15;;
19971;SDS011;10147;16.402;102.848;2023-04-06T02:37:46;50.40;;;42.72;;
19971;SDS011;10147;16.402;102.848;2023-04-06T02:40:16;50.80;;;44.25;;
19971;SDS011;10147;16.402;102.848;2023-04-06T02:42:46;53.22;;;43.38;;
19971;SDS011;10147;16.402;102.848;2023-04-06T02:45:25;54.08;;;43.35;;
19971;SDS011;10147;16.402;102.848;2023-04-06T02:47:55;56.47;;;44.80;;
19971;SDS011;10147;16.402;102.848;2023-04-06T02:50:25;55.22;;;45.95;;
19971;SDS011;10147;16.402;102.848;2023-04-06T02:53:00;60.17;;;42.42;;
19971;SDS011;10147;16.402;102.848;2023-04-06T02:55:30;57.63;;;46.28;;
19971;SDS011;10147;16.402;102.848;2023-04-06T02:57:59;62.90;;;46.10;;
19971;SDS011;10147;16.402;102.848;2023-04-06T03:00:37;56.83;;;44.67;;
19971;SDS011;10147;16.402;102.848;2023-04-06T03:03:07;57.33;;;43.25;;
19971;SDS011;10147;16.402;102.848;2023-04-06T03:05:38;54.20;;;43.53;;
19971;SDS011;10147;16.402;102.848;2023-04-06T03:08:09;54.50;;;47.22;;
19971;SDS011;10147;16.402;102.848;2023-04-06T03:10:42;53.45;;;45.65;;
19971;SDS011;10147;16.402;102.848;2023-04-06T03:13:14;49.08;;;43.85;;
19971;SDS011;10147;16.402;102.848;2023-04-06T03:15:49;48.45;;;42.92;;
19971;SDS011;10147;16.402;102.848;2023-04-06T03:18:21;55.13;;;42.30;;
19971;SDS011;10147;16.402;102.848;2023-04-06T03:20:54;51.85;;;43.85;;
19971;SDS011;10147;16.402;102.848;2023-04-06T03:23:31;59.05;;;43.58;;
19971;SDS011;10147;16.402;102.848;2023-04-06T03:26:02;57.28;;;44.63;;
19971;SDS011;10147;16.402;102.848;2023-04-06T03:28:32;53.03;;;44.33;;
19971;SDS011;10147;16.402;102.848;2023-04-06T03:31:05;51.17;;;43.55;;
19971;SDS011;10147;16.402;102.848;2023-04-06T03:33:55;47.15;;;41.85;;
19971;SDS011;10147;16.402;102.848;2023-04-06T03:36:29;55.75;;;43.65;;
19971;SDS011;10147;16.402;102.848;2023-04-06T03:39:02;54.60;;;43.95;;
19971;SDS011;10147;16.402;102.848;2023-04-06T03:41:36;49.25;;;41.42;;
19971;SDS011;10147;16.402;102.848;2023-04-06T03:44:26;51.83;;;43.45;;
19971;SDS011;10147;16.402;102.848;2023-04-06T03:46:56;58.05;;;49.00;;
19971;SDS011;10147;16.402;102.848;2023-04-06T03:49:27;52.88;;;44.50;;
19971;SDS011;10147;16.402;102.848;2023-04-06T03:52:00;48.25;;;42.70;;
19971;SDS011;10147;16.402;102.848;2023-04-06T03:54:30;49.63;;;41.88;;
19971;SDS011;10147;16.402;102.848;2023-04-06T03:57:00;48.22;;;42.10;;
19971;SDS011;10147;16.402;102.848;2023-04-06T03:59:30;48.13;;;40.55;;
19971;SDS011;10147;16.402;102.848;2023-04-06T04:02:00;46.08;;;41.17;;
19971;SDS011;10147;16.402;102.848;2023-04-06T04:04:30;48.15;;;41.72;;
19971;SDS011;10147;16.402;102.848;2023-04-06T04:07:00;49.08;;;42.58;;
19971;SDS011;10147;16.402;102.848;2023-04-06T04:09:30;52.83;;;43.63;;
19971;SDS011;10147;16.402;102.848;2023-04-06T04:12:00;61.80;;;44.13;;
19971;SDS011;10147;16.402;102.848;2023-04-06T04:14:31;46.38;;;41.42;;
19971;SDS011;10147;16.402;102.848;2023-04-06T04:17:01;54.53;;;43.63;;
19971;SDS011;10147;16.402;102.848;2023-04-06T04:19:31;52.17;;;43.40;;
19971;SDS011;10147;16.402;102.848;2023-04-06T04:22:02;49.17;;;43.42;;
19971;SDS011;10147;16.402;102.848;2023-04-06T04:24:38;50.72;;;42.95;;
19971;SDS011;10147;16.402;102.848;2023-04-06T04:27:09;53.97;;;44.00;;
19971;SDS011;10147;16.402;102.848;2023-04-06T04:29:41;48.75;;;42.83;;
19971;SDS011;10147;16.402;102.848;2023-04-06T04:32:13;55.03;;;43.20;;
19971;SDS011;10147;16.402;102.848;2023-04-06T04:34:44;48.88;;;43.65;;
19971;SDS011;10147;16.402;102.848;2023-04-06T04:37:29;51.30;;;43.42;;
19971;SDS011;10147;16.402;102.848;2023-04-06T04:39:59;52.95;;;47.33;;
19971;SDS011;10147;16.402;102.848;2023-04-06T04:42:37;53.97;;;48.25;;
19971;SDS011;10147;16.402;102.848;2023-04-06T04:45:13;48.70;;;43.70;;
19971;SDS011;10147;16.402;102.848;2023-04-06T04:47:44;50.97;;;45.45;;
19971;SDS011;10147;16.402;102.848;2023-04-06T04:50:18;50.28;;;43.55;;
19971;SDS011;10147;16.402;102.848;2023-04-06T04:52:51;50.15;;;44.80;;
19971;SDS011;10147;16.402;102.848;2023-04-06T04:55:24;56.75;;;45.47;;
19971;SDS011;10147;16.402;102.848;2023-04-06T04:57:57;54.40;;;48.40;;
19971;SDS011;10147;16.402;102.848;2023-04-06T05:00:47;54.92;;;49.10;;
19971;SDS011;10147;16.402;102.848;2023-04-06T05:03:20;56.47;;;50.85;;
19971;SDS011;10147;16.402;102.848;2023-04-06T05:05:59;61.05;;;50.40;;
19971;SDS011;10147;16.402;102.848;2023-04-06T05:08:33;61.17;;;54.42;;
19971;SDS011;10147;16.402;102.848;2023-04-06T05:11:05;57.78;;;51.60;;
19971;SDS011;10147;16.402;102.848;2023-04-06T05:13:40;58.72;;;52.35;;
19971;SDS011;10147;16.402;102.848;2023-04-06T05:16:16;59.42;;;53.15;;
19971;SDS011;10147;16.402;102.848;2023-04-06T05:18:47;59.70;;;53.47;;
19971;SDS011;10147;16.402;102.848;2023-04-06T05:21:18;58.75;;;52.83;;
19971;SDS011;10147;16.402;102.848;2023-04-06T05:24:03;61.28;;;54.80;;
19971;SDS011;10147;16.402;102.848;2023-04-06T05:26:33;59.50;;;53.65;;
19971;SDS011;10147;16.402;102.848;2023-04-06T05:29:10;61.22;;;55.40;;
19971;SDS011;10147;16.402;102.848;2023-04-06T05:31:40;65.45;;;59.00;;
19971;SDS011;10147;16.402;102.848;2023-04-06T05:34:12;67.75;;;61.38;;
19971;SDS011;10147;16.402;102.848;2023-04-06T05:36:43;77.85;;;70.57;;
19971;SDS011;10147;16.402;102.848;2023-04-06T05:39:20;83.50;;;75.82;;
19971;SDS011;10147;16.402;102.848;2023-04-06T05:41:52;82.10;;;74.68;;
19971;SDS011;10147;16.402;102.848;2023-04-06T05:44:32;86.00;;;77.72;;
19971;SDS011;10147;16.402;102.848;2023-04-06T05:47:07;62.50;;;56.50;;
19971;SDS011;10147;16.402;102.848;2023-04-06T05:49:41;73.95;;;66.72;;
19971;SDS011;10147;16.402;102.848;2023-04-06T05:52:19;69.97;;;63.00;;
19971;SDS011;10147;16.402;102.848;2023-04-06T05:54:49;66.75;;;59.90;;
19971;SDS011;10147;16.402;102.848;2023-04-06T05:57:23;63.65;;;57.47;;
19971;SDS011;10147;16.402;102.848;2023-04-06T05:59:54;59.20;;;53.50;;
19971;SDS011;10147;16.402;102.848;2023-04-06T06:02:38;59.47;;;53.10;;
19971;SDS011;10147;16.402;102.848;2023-04-06T06:05:14;62.03;;;53.63;;
19971;SDS011;10147;16.402;102.848;2023-04-06T06:07:46;60.63;;;54.55;;
19971;SDS011;10147;16.402;102.848;2023-04-06T06:10:16;60.38;;;54.40;;
19971;SDS011;10147;16.402;102.848;2023-04-06T06:12:47;60.65;;;54.78;;
19971;SDS011;10147;16.402;102.848;2023-04-06T06:15:17;61.75;;;55.40;;
19971;SDS011;10147;16.402;102.848;2023-04-06T06:17:47;64.50;;;58.10;;
19971;SDS011;10147;16.402;102.848;2023-04-06T06:20:18;66.30;;;59.13;;
19971;SDS011;10147;16.402;102.848;2023-04-06T06:22:50;64.70;;;57.88;;
19971;SDS011;10147;16.402;102.848;2023-04-06T06:25:22;65.72;;;59.20;;
19971;SDS011;10147;16.402;102.848;2023-04-06T06:27:53;64.45;;;58.40;;
19971;SDS011;10147;16.402;102.848;2023-04-06T06:30:23;66.90;;;60.25;;
19971;SDS011;10147;16.402;102.848;2023-04-06T06:32:53;68.05;;;60.45;;
19971;SDS011;10147;16.402;102.848;2023-04-06T06:35:24;67.30;;;61.10;;
19971;SDS011;10147;16.402;102.848;2023-04-06T06:37:54;67.13;;;60.53;;
19971;SDS011;10147;16.402;102.848;2023-04-06T06:40:26;69.65;;;62.85;;
19971;SDS011;10147;16.402;102.848;2023-04-06T06:42:57;72.75;;;65.28;;
19971;SDS011;10147;16.402;102.848;2023-04-06T06:45:35;72.15;;;64.97;;
19971;SDS011;10147;16.402;102.848;2023-04-06T06:48:05;74.55;;;67.35;;
19971;SDS011;10147;16.402;102.848;2023-04-06T06:50:37;81.00;;;72.18;;
19971;SDS011;10147;16.402;102.848;2023-04-06T06:53:07;79.05;;;71.35;;
19971;SDS011;10147;16.402;102.848;2023-04-06T06:55:37;74.30;;;67.28;;
19971;SDS011;10147;16.402;102.848;2023-04-06T06:58:08;76.68;;;69.68;;
19971;SDS011;10147;16.402;102.848;2023-04-06T07:00:38;77.82;;;69.88;;
19971;SDS011;10147;16.402;102.848;2023-04-06T07:03:11;81.68;;;73.78;;
19971;SDS011;10147;16.402;102.848;2023-04-06T07:05:45;85.28;;;76.72;;
19971;SDS011;10147;16.402;102.848;2023-04-06T07:08:23;125.95;;;78.45;;
19971;SDS011;10147;16.402;102.848;2023-04-06T07:10:56;81.53;;;73.65;;
19971;SDS011;10147;16.402;102.848;2023-04-06T07:13:26;85.35;;;77.35;;
19971;SDS011;10147;16.402;102.848;2023-04-06T07:15:58;90.68;;;82.20;;
19971;SDS011;10147;16.402;102.848;2023-04-06T07:18:28;80.38;;;73.20;;
19971;SDS011;10147;16.402;102.848;2023-04-06T07:21:03;75.07;;;67.53;;
19971;SDS011;10147;16.402;102.848;2023-04-06T07:23:34;81.43;;;73.75;;
19971;SDS011;10147;16.402;102.848;2023-04-06T07:26:05;78.10;;;70.85;;
19971;SDS011;10147;16.402;102.848;2023-04-06T07:28:36;82.53;;;73.97;;
19971;SDS011;10147;16.402;102.848;2023-04-06T07:31:08;77.63;;;70.07;;
19971;SDS011;10147;16.402;102.848;2023-04-06T07:33:40;84.68;;;76.68;;
19971;SDS011;10147;16.402;102.848;2023-04-06T07:36:10;81.38;;;73.75;;
19971;SDS011;10147;16.402;102.848;2023-04-06T07:38:42;69.85;;;63.00;;
19971;SDS011;10147;16.402;102.848;2023-04-06T07:41:14;74.47;;;67.88;;
19971;SDS011;10147;16.402;102.848;2023-04-06T07:43:46;71.22;;;64.15;;
19971;SDS011;10147;16.402;102.848;2023-04-06T07:46:17;68.32;;;61.55;;
19971;SDS011;10147;16.402;102.848;2023-04-06T07:48:48;68.40;;;61.40;;
19971;SDS011;10147;16.402;102.848;2023-04-06T07:51:19;68.22;;;61.30;;
19971;SDS011;10147;16.402;102.848;2023-04-06T07:53:50;69.10;;;62.45;;
19971;SDS011;10147;16.402;102.848;2023-04-06T07:56:22;65.97;;;59.10;;
19971;SDS011;10147;16.402;102.848;2023-04-06T07:58:53;67.85;;;61.00;;
19971;SDS011;10147;16.402;102.848;2023-04-06T08:01:27;67.30;;;61.17;;
19971;SDS011;10147;16.402;102.848;2023-04-06T08:03:57;68.53;;;62.13;;
19971;SDS011;10147;16.402;102.848;2023-04-06T08:06:29;67.60;;;61.00;;
19971;SDS011;10147;16.402;102.848;2023-04-06T08:08:59;68.25;;;62.08;;
19971;SDS011;10147;16.402;102.848;2023-04-06T08:11:29;67.10;;;60.72;;
19971;SDS011;10147;16.402;102.848;2023-04-06T08:13:59;64.45;;;58.25;;
19971;SDS011;10147;16.402;102.848;2023-04-06T08:16:29;65.93;;;59.55;;
19971;SDS011;10147;16.402;102.848;2023-04-06T08:18:59;62.83;;;56.50;;
19971;SDS011;10147;16.402;102.848;2023-04-06T08:21:29;65.30;;;58.47;;
19971;SDS011;10147;16.402;102.848;2023-04-06T08:23:59;65.40;;;58.83;;
19971;SDS011;10147;16.402;102.848;2023-04-06T08:26:31;63.00;;;57.20;;
19971;SDS011;10147;16.402;102.848;2023-04-06T08:29:01;63.08;;;57.17;;
19971;SDS011;10147;16.402;102.848;2023-04-06T08:31:35;61.50;;;55.45;;
19971;SDS011;10147;16.402;102.848;2023-04-06T08:34:07;57.72;;;52.40;;
19971;SDS011;10147;16.402;102.848;2023-04-06T08:36:41;59.53;;;53.75;;
19971;SDS011;10147;16.402;102.848;2023-04-06T08:39:11;58.60;;;52.88;;
19971;SDS011;10147;16.402;102.848;2023-04-06T08:41:41;56.22;;;50.50;;
19971;SDS011;10147;16.402;102.848;2023-04-06T08:44:13;54.78;;;49.22;;
19971;SDS011;10147;16.402;102.848;2023-04-06T08:46:43;55.15;;;49.75;;
19971;SDS011;10147;16.402;102.848;2023-04-06T08:49:14;55.13;;;49.95;;
19971;SDS011;10147;16.402;102.848;2023-04-06T08:51:46;51.92;;;47.00;;
19971;SDS011;10147;16.402;102.848;2023-04-06T08:54:17;53.30;;;47.72;;
19971;SDS011;10147;16.402;102.848;2023-04-06T08:56:50;51.72;;;46.58;;
19971;SDS011;10147;16.402;102.848;2023-04-06T08:59:21;48.53;;;43.67;;
19971;SDS011;10147;16.402;102.848;2023-04-06T09:01:53;48.33;;;43.00;;
19971;SDS011;10147;16.402;102.848;2023-04-06T09:04:26;45.83;;;41.00;;
19971;SDS011;10147;16.402;102.848;2023-04-06T09:06:56;52.35;;;41.97;;
19971;SDS011;10147;16.402;102.848;2023-04-06T09:09:26;47.08;;;42.10;;
19971;SDS011;10147;16.402;102.848;2023-04-06T09:11:56;47.15;;;42.55;;
19971;SDS011;10147;16.402;102.848;2023-04-06T09:14:35;48.10;;;43.08;;
19971;SDS011;10147;16.402;102.848;2023-04-06T09:17:07;47.10;;;42.22;;
19971;SDS011;10147;16.402;102.848;2023-04-06T09:19:46;48.45;;;43.38;;
19971;SDS011;10147;16.402;102.848;2023-04-06T09:22:20;48.75;;;43.80;;
19971;SDS011;10147;16.402;102.848;2023-04-06T09:24:53;45.15;;;40.58;;
19971;SDS011;10147;16.402;102.848;2023-04-06T09:27:35;46.13;;;40.42;;
19971;SDS011;10147;16.402;102.848;2023-04-06T09:30:07;44.28;;;39.55;;
19971;SDS011;10147;16.402;102.848;2023-04-06T09:32:49;49.90;;;39.42;;
19971;SDS011;10147;16.402;102.848;2023-04-06T09:35:23;44.83;;;40.10;;
19971;SDS011;10147;16.402;102.848;2023-04-06T09:37:55;46.08;;;41.38;;
19971;SDS011;10147;16.402;102.848;2023-04-06T09:40:25;54.95;;;49.08;;
19971;SDS011;10147;16.402;102.848;2023-04-06T09:42:57;51.60;;;45.28;;
19971;SDS011;10147;16.402;102.848;2023-04-06T09:45:28;46.15;;;41.08;;
19971;SDS011;10147;16.402;102.848;2023-04-06T09:47:59;46.33;;;39.28;;
19971;SDS011;10147;16.402;102.848;2023-04-06T09:50:30;43.72;;;37.92;;
19971;SDS011;10147;16.402;102.848;2023-04-06T09:53:02;43.85;;;38.70;;
19971;SDS011;10147;16.402;102.848;2023-04-06T09:55:35;43.88;;;39.10;;
19971;SDS011;10147;16.402;102.848;2023-04-06T09:58:12;54.88;;;41.95;;
19971;SDS011;10147;16.402;102.848;2023-04-06T10:00:48;47.47;;;41.88;;
19971;SDS011;10147;16.402;102.848;2023-04-06T10:06:41;50.25;;;44.97;;
19971;SDS011;10147;16.402;102.848;2023-04-06T10:09:12;54.65;;;45.83;;
19971;SDS011;10147;16.402;102.848;2023-04-06T10:11:43;51.65;;;46.03;;
19971;SDS011;10147;16.402;102.848;2023-04-06T10:14:15;55.80;;;48.13;;
19971;SDS011;10147;16.402;102.848;2023-04-06T10:16:47;52.38;;;46.70;;
19971;SDS011;10147;16.402;102.848;2023-04-06T10:19:21;54.47;;;46.88;;
19971;SDS011;10147;16.402;102.848;2023-04-06T10:21:55;53.20;;;46.55;;
19971;SDS011;10147;16.402;102.848;2023-04-06T10:24:29;58.05;;;45.90;;
19971;SDS011;10147;16.402;102.848;2023-04-06T10:27:03;53.40;;;43.80;;
19971;SDS011;10147;16.402;102.848;2023-04-06T10:29:45;53.38;;;40.95;;
19971;SDS011;10147;16.402;102.848;2023-04-06T10:32:17;53.70;;;41.90;;
19971;SDS011;10147;16.402;102.848;2023-04-06T10:34:47;47.80;;;42.63;;
19971;SDS011;10147;16.402;102.848;2023-04-06T10:37:17;53.28;;;43.92;;
19971;SDS011;10147;16.402;102.848;2023-04-06T10:39:52;53.78;;;46.92;;
19971;SDS011;10147;16.402;102.848;2023-04-06T10:42:37;57.92;;;48.33;;
19971;SDS011;10147;16.402;102.848;2023-04-06T10:45:26;73.28;;;53.67;;
19971;SDS011;10147;16.402;102.848;2023-04-06T10:48:18;69.88;;;53.75;;
19971;SDS011;10147;16.402;102.848;2023-04-06T10:50:50;69.38;;;56.05;;
19971;SDS011;10147;16.402;102.848;2023-04-06T10:53:25;73.80;;;57.67;;
19971;SDS011;10147;16.402;102.848;2023-04-06T10:55:56;82.28;;;59.85;;
19971;SDS011;10147;16.402;102.848;2023-04-06T10:58:27;74.25;;;59.03;;
19971;SDS011;10147;16.402;102.848;2023-04-06T11:00:59;76.60;;;57.45;;
19971;SDS011;10147;16.402;102.848;2023-04-06T11:03:29;70.20;;;56.55;;
19971;SDS011;10147;16.402;102.848;2023-04-06T11:06:01;66.32;;;53.08;;
19971;SDS011;10147;16.402;102.848;2023-04-06T11:08:32;59.45;;;50.90;;
19971;SDS011;10147;16.402;102.848;2023-04-06T11:11:06;62.75;;;49.30;;
19971;SDS011;10147;16.402;102.848;2023-04-06T11:13:42;63.78;;;48.40;;
19971;SDS011;10147;16.402;102.848;2023-04-06T11:16:21;61.22;;;48.17;;
19971;SDS011;10147;16.402;102.848;2023-04-06T11:18:54;64.60;;;46.47;;
19971;SDS011;10147;16.402;102.848;2023-04-06T11:21:39;67.97;;;46.80;;
19971;SDS011;10147;16.402;102.848;2023-04-06T11:24:16;62.45;;;46.67;;
19971;SDS011;10147;16.402;102.848;2023-04-06T11:26:51;67.22;;;45.67;;
19971;SDS011;10147;16.402;102.848;2023-04-06T11:29:25;58.30;;;41.58;;
19971;SDS011;10147;16.402;102.848;2023-04-06T11:32:01;54.53;;;41.50;;
19971;SDS011;10147;16.402;102.848;2023-04-06T11:34:36;51.70;;;42.85;;
19971;SDS011;10147;16.402;102.848;2023-04-06T11:37:08;58.30;;;43.38;;
19971;SDS011;10147;16.402;102.848;2023-04-06T11:39:40;57.67;;;43.92;;
19971;SDS011;10147;16.402;102.848;2023-04-06T11:42:22;85.03;;;69.55;;
19971;SDS011;10147;16.402;102.848;2023-04-06T11:44:54;83.10;;;53.22;;
19971;SDS011;10147;16.402;102.848;2023-04-06T11:47:35;61.00;;;46.95;;
19971;SDS011;10147;16.402;102.848;2023-04-06T11:50:12;65.45;;;46.45;;
19971;SDS011;10147;16.402;102.848;2023-04-06T11:52:42;52.50;;;42.10;;
19971;SDS011;10147;16.402;102.848;2023-04-06T11:55:16;58.05;;;41.50;;
19971;SDS011;10147;16.402;102.848;2023-04-06T11:57:47;59.03;;;46.15;;
19971;SDS011;10147;16.402;102.848;2023-04-06T12:00:18;57.88;;;45.22;;
19971;SDS011;10147;16.402;102.848;2023-04-06T12:02:50;59.40;;;42.63;;
19971;SDS011;10147;16.402;102.848;2023-04-06T12:05:20;60.05;;;42.15;;
19971;SDS011;10147;16.402;102.848;2023-04-06T12:07:55;58.65;;;41.53;;
19971;SDS011;10147;16.402;102.848;2023-04-06T12:10:29;57.55;;;41.83;;
19971;SDS011;10147;16.402;102.848;2023-04-06T12:12:59;50.67;;;39.90;;
19971;SDS011;10147;16.402;102.848;2023-04-06T12:15:30;48.95;;;41.05;;
19971;SDS011;10147;16.402;102.848;2023-04-06T12:17:59;53.55;;;40.25;;
19971;SDS011;10147;16.402;102.848;2023-04-06T12:20:29;55.65;;;42.28;;
19971;SDS011;10147;16.402;102.848;2023-04-06T12:23:01;52.75;;;41.25;;
19971;SDS011;10147;16.402;102.848;2023-04-06T12:25:30;61.95;;;42.42;;
19971;SDS011;10147;16.402;102.848;2023-04-06T12:28:00;62.28;;;42.88;;
19971;SDS011;10147;16.402;102.848;2023-04-06T12:30:30;56.17;;;43.58;;
19971;SDS011;10147;16.402;102.848;2023-04-06T12:33:01;63.75;;;42.45;;
19971;SDS011;10147;16.402;102.848;2023-04-06T12:35:34;60.45;;;43.03;;
19971;SDS011;10147;16.402;102.848;2023-04-06T12:38:04;55.13;;;44.20;;
19971;SDS011;10147;16.402;102.848;2023-04-06T12:40:37;57.92;;;42.58;;
19971;SDS011;10147;16.402;102.848;2023-04-06T12:43:08;56.20;;;42.90;;
19971;SDS011;10147;16.402;102.848;2023-04-06T12:45:39;52.70;;;42.67;;
19971;SDS011;10147;16.402;102.848;2023-04-06T12:48:10;48.85;;;43.00;;
19971;SDS011;10147;16.402;102.848;2023-04-06T12:50:40;53.33;;;43.55;;
19971;SDS011;10147;16.402;102.848;2023-04-06T12:53:10;52.22;;;42.47;;
19971;SDS011;10147;16.402;102.848;2023-04-06T12:55:40;55.70;;;41.40;;
19971;SDS011;10147;16.402;102.848;2023-04-06T12:58:10;50.85;;;42.13;;
19971;SDS011;10147;16.402;102.848;2023-04-06T13:00:40;56.20;;;43.22;;
19971;SDS011;10147;16.402;102.848;2023-04-06T13:03:10;49.65;;;43.03;;
19971;SDS011;10147;16.402;102.848;2023-04-06T13:05:44;58.58;;;44.28;;
19971;SDS011;10147;16.402;102.848;2023-04-06T13:08:15;59.55;;;45.30;;
19971;SDS011;10147;16.402;102.848;2023-04-06T13:10:47;57.33;;;44.67;;
19971;SDS011;10147;16.402;102.848;2023-04-06T13:13:26;60.38;;;47.10;;
19971;SDS011;10147;16.402;102.848;2023-04-06T13:16:00;59.80;;;47.20;;
19971;SDS011;10147;16.402;102.848;2023-04-06T13:18:33;58.50;;;48.80;;
19971;SDS011;10147;16.402;102.848;2023-04-06T13:21:06;61.80;;;46.97;;
19971;SDS011;10147;16.402;102.848;2023-04-06T13:23:36;62.97;;;50.80;;
19971;SDS011;10147;16.402;102.848;2023-04-06T13:26:06;62.35;;;50.60;;
19971;SDS011;10147;16.402;102.848;2023-04-06T13:28:37;67.00;;;50.80;;
19971;SDS011;10147;16.402;102.848;2023-04-06T13:31:08;62.13;;;52.78;;
19971;SDS011;10147;16.402;102.848;2023-04-06T13:33:38;65.28;;;52.90;;
19971;SDS011;10147;16.402;102.848;2023-04-06T13:36:09;78.55;;;55.80;;
19971;SDS011;10147;16.402;102.848;2023-04-06T13:38:43;69.60;;;54.72;;
19971;SDS011;10147;16.402;102.848;2023-04-06T13:41:23;124.88;;;111.18;;
19971;SDS011;10147;16.402;102.848;2023-04-06T13:43:55;75.00;;;58.95;;
19971;SDS011;10147;16.402;102.848;2023-04-06T13:46:26;66.10;;;55.30;;
19971;SDS011;10147;16.402;102.848;2023-04-06T13:48:56;67.30;;;56.70;;
19971;SDS011;10147;16.402;102.848;2023-04-06T13:51:26;65.88;;;55.75;;
19971;SDS011;10147;16.402;102.848;2023-04-06T13:53:56;63.30;;;54.15;;
19971;SDS011;10147;16.402;102.848;2023-04-06T13:56:26;70.28;;;53.65;;
19971;SDS011;10147;16.402;102.848;2023-04-06T13:58:56;61.17;;;52.70;;
19971;SDS011;10147;16.402;102.848;2023-04-06T14:01:27;72.45;;;53.38;;
19971;SDS011;10147;16.402;102.848;2023-04-06T14:03:57;74.85;;;54.83;;
19971;SDS011;10147;16.402;102.848;2023-04-06T14:06:27;71.07;;;52.80;;
19971;SDS011;10147;16.402;102.848;2023-04-06T14:08:58;68.43;;;54.00;;
19971;SDS011;10147;16.402;102.848;2023-04-06T14:11:29;72.80;;;55.97;;
19971;SDS011;10147;16.402;102.848;2023-04-06T14:13:59;72.40;;;54.22;;
19971;SDS011;10147;16.402;102.848;2023-04-06T14:16:29;71.07;;;56.22;;
19971;SDS011;10147;16.402;102.848;2023-04-06T14:19:00;68.88;;;54.65;;
19971;SDS011;10147;16.402;102.848;2023-04-06T14:21:30;66.57;;;56.15;;
19971;SDS011;10147;16.402;102.848;2023-04-06T14:24:00;72.80;;;56.55;;
19971;SDS011;10147;16.402;102.848;2023-04-06T14:26:30;73.72;;;56.55;;
19971;SDS011;10147;16.402;102.848;2023-04-06T14:29:01;73.45;;;55.13;;
19971;SDS011;10147;16.402;102.848;2023-04-06T14:31:31;62.97;;;56.22;;